Time;durP1;ratioP1;P1;durP2;ratioP2;P2;SDS_P1;SDS_P2;PMS_P1;PMS_P2;Temp;Humidity;BMP_temperature;BMP_pressure;BME280_temperature;BME280_humidity;BME280_pressure;Samples;Min_cycle;Max_cycle;Signal;HPM_P1;HPM_P2
2021/07/17 00:00:11;;;;;;;13.50;9.30;;;;;;;16.95;81.86;100440.06;4955043;28;20062;-67
2021/07/17 00:02:37;;;;;;;23.40;12.63;;;;;;;16.99;81.46;100426.59;4971661;28;20113;-68
2021/07/17 00:05:14;;;;;;;18.52;12.13;;;;;;;17.01;81.37;100422.00;4972057;28;20071;-68
2021/07/17 00:07:40;;;;;;;19.88;12.38;;;;;;;16.97;81.61;100432.00;4971604;28;20097;-68
2021/07/17 00:10:08;;;;;;;18.58;11.07;;;;;;;16.97;81.80;100429.34;4971938;28;20101;-69
2021/07/17 00:12:33;;;;;;;18.25;10.05;;;;;;;17.02;81.50;100437.88;4971549;28;20041;-68
2021/07/17 00:14:59;;;;;;;17.77;11.48;;;;;;;17.07;80.96;100437.56;4970980;28;20038;-67
2021/07/17 00:17:24;;;;;;;16.17;9.35;;;;;;;17.08;81.17;100441.94;4971273;28;20115;-68
2021/07/17 00:19:49;;;;;;;24.27;13.85;;;;;;;17.10;80.28;100442.69;4971524;28;20094;-68
2021/07/17 00:22:15;;;;;;;22.70;10.90;;;;;;;17.10;80.08;100440.88;4971596;28;20045;-67
2021/07/17 00:24:40;;;;;;;27.42;13.20;;;;;;;17.12;79.86;100440.78;4971269;28;20034;-67
2021/07/17 00:27:05;;;;;;;31.35;14.43;;;;;;;17.14;79.62;100445.06;4971901;28;20034;-68
2021/07/17 00:29:31;;;;;;;20.38;12.38;;;;;;;17.14;79.12;100444.22;4974191;28;20061;-68
2021/07/17 00:31:56;;;;;;;25.77;11.88;;;;;;;17.17;79.12;100438.69;4971575;28;20031;-69
2021/07/17 00:34:21;;;;;;;29.35;13.95;;;;;;;17.20;78.85;100435.78;4971208;28;20038;-67
2021/07/17 00:36:47;;;;;;;25.80;11.43;;;;;;;17.20;79.25;100438.47;4971131;28;20045;-67
2021/07/17 00:39:12;;;;;;;27.45;12.73;;;;;;;17.25;79.16;100446.16;4970881;28;20109;-69
2021/07/17 00:41:37;;;;;;;21.20;11.82;;;;;;;17.25;79.00;100436.34;4971656;28;20426;-68
2021/07/17 00:44:03;;;;;;;18.35;12.43;;;;;;;17.27;78.69;100444.25;4970991;28;20035;-68
2021/07/17 00:46:30;;;;;;;26.08;12.88;;;;;;;17.25;78.63;100438.16;4970312;28;20047;-68
2021/07/17 00:48:56;;;;;;;24.48;12.98;;;;;;;17.23;79.07;100432.06;4953766;28;20042;-69
2021/07/17 00:51:25;;;;;;;20.17;12.75;;;;;;;17.24;79.15;100434.66;4970898;28;20035;-67
2021/07/17 00:53:50;;;;;;;20.00;13.05;;;;;;;17.26;78.98;100430.06;4970748;28;20517;-68
2021/07/17 00:56:16;;;;;;;29.42;14.23;;;;;;;17.24;78.70;100420.47;4970516;28;20038;-69
2021/07/17 00:58:43;;;;;;;26.95;14.32;;;;;;;17.20;78.91;100419.81;4970815;28;20105;-68
2021/07/17 01:01:09;;;;;;;22.58;13.63;;;;;;;17.15;79.26;100428.13;4945689;28;20074;-67
2021/07/17 01:03:36;;;;;;;28.48;14.32;;;;;;;17.16;79.35;100421.84;4954583;28;20038;-67
2021/07/17 01:06:01;;;;;;;29.95;16.92;;;;;;;17.16;79.24;100419.19;4972167;28;20062;-68
2021/07/17 01:08:27;;;;;;;25.77;13.88;;;;;;;17.15;79.73;100420.16;4970404;28;20046;-68
2021/07/17 01:10:52;;;;;;;22.50;14.85;;;;;;;17.14;79.92;100437.06;4953515;28;20491;-68
2021/07/17 01:13:18;;;;;;;33.80;15.20;;;;;;;17.08;79.08;100431.28;4970670;28;20077;-68
2021/07/17 01:15:43;;;;;;;26.17;15.02;;;;;;;17.03;79.67;100434.28;4974422;28;20088;-68
2021/07/17 01:18:08;;;;;;;30.60;14.70;;;;;;;17.06;79.35;100435.88;4977150;28;20041;-68
2021/07/17 01:20:34;;;;;;;27.75;14.98;;;;;;;17.06;79.63;100436.72;4977624;28;20125;-67
2021/07/17 01:23:00;;;;;;;33.03;16.13;;;;;;;17.06;79.26;100442.06;4977038;28;20070;-67
2021/07/17 01:25:27;;;;;;;29.05;16.05;;;;;;;17.05;79.30;100442.16;4976929;28;20085;-67
2021/07/17 01:27:58;;;;;;;25.58;15.88;;;;;;;17.02;79.74;100439.69;4976256;28;20035;-67
2021/07/17 01:30:26;;;;;;;22.08;13.50;;;;;;;17.02;79.73;100445.88;4962152;28;20038;-67
2021/07/17 01:32:52;;;;;;;25.45;15.68;;;;;;;17.03;79.42;100444.06;4976760;28;20035;-68
2021/07/17 01:35:18;;;;;;;22.63;13.95;;;;;;;17.02;79.62;100445.03;4976449;28;20499;-68
2021/07/17 01:37:44;;;;;;;22.70;12.40;;;;;;;17.03;79.61;100447.59;4976278;28;20081;-68
2021/07/17 01:40:18;;;;;;;30.85;14.32;;;;;;;17.03;79.46;100444.94;4975832;28;20045;-68
2021/07/17 01:42:43;;;;;;;29.10;17.02;;;;;;;17.00;79.49;100452.25;4975085;28;20039;-67
2021/07/17 01:45:09;;;;;;;23.08;13.25;;;;;;;16.97;80.09;100455.97;4958988;28;20089;-67
2021/07/17 01:47:37;;;;;;;29.80;14.30;;;;;;;16.96;79.85;100454.28;4976911;28;20035;-67
2021/07/17 01:50:04;;;;;;;23.30;15.13;;;;;;;16.98;79.65;100446.16;4976033;28;20054;-70
2021/07/17 01:52:30;;;;;;;35.65;17.40;;;;;;;16.97;78.99;100441.81;4977415;28;20487;-68
2021/07/17 01:54:55;;;;;;;34.05;16.40;;;;;;;16.92;79.37;100444.78;4959956;28;20100;-68
2021/07/17 01:57:21;;;;;;;29.30;14.32;;;;;;;16.91;79.23;100440.41;4976237;28;20027;-68
2021/07/17 01:59:46;;;;;;;26.98;15.15;;;;;;;16.92;79.35;100439.44;4976331;28;20125;-68
2021/07/17 02:02:13;;;;;;;25.17;14.60;;;;;;;16.90;79.25;100446.66;4976704;28;20054;-68
2021/07/17 02:04:38;;;;;;;28.05;14.80;;;;;;;16.90;78.69;100444.84;4976591;28;20030;-68
2021/07/17 02:07:06;;;;;;;31.65;15.55;;;;;;;16.86;79.72;100448.69;4976091;28;20054;-68
2021/07/17 02:09:32;;;;;;;30.05;14.20;;;;;;;16.85;79.26;100438.97;4976679;28;20105;-68
2021/07/17 02:11:57;;;;;;;31.38;15.82;;;;;;;16.83;79.24;100432.03;4976361;28;20063;-67
2021/07/17 02:14:23;;;;;;;40.40;18.67;;;;;;;16.83;79.18;100438.22;4976085;28;20054;-68
2021/07/17 02:16:48;;;;;;;29.95;17.17;;;;;;;16.84;79.44;100433.78;4958849;28;20105;-68
2021/07/17 02:19:19;;;;;;;32.00;16.70;;;;;;;16.82;78.96;100436.53;4976737;28;20447;-67
2021/07/17 02:21:47;;;;;;;32.65;14.80;;;;;;;16.80;79.63;100435.75;4976518;28;20035;-68
2021/07/17 02:24:13;;;;;;;38.28;18.83;;;;;;;16.80;79.44;100434.91;4976004;28;20538;-68
2021/07/17 02:26:38;;;;;;;26.50;14.90;;;;;;;16.77;79.25;100437.75;4977094;28;20154;-68
2021/07/17 02:29:03;;;;;;;31.88;16.67;;;;;;;16.74;79.07;100436.13;4973626;28;20041;-68
2021/07/17 02:31:29;;;;;;;30.10;15.85;;;;;;;16.71;79.59;100434.53;4973222;28;20042;-68
2021/07/17 02:33:54;;;;;;;34.50;16.60;;;;;;;16.72;79.56;100438.88;4972294;28;20058;-68
2021/07/17 02:36:20;;;;;;;27.58;17.55;;;;;;;16.74;79.47;100441.47;4973093;28;20046;-68
2021/07/17 02:38:45;;;;;;;36.25;18.58;;;;;;;16.73;79.81;100439.72;4971880;28;20105;-69
2021/07/17 02:41:10;;;;;;;28.48;16.05;;;;;;;16.69;79.60;100439.09;4972815;28;20043;-67
2021/07/17 02:43:38;;;;;;;24.42;14.10;;;;;;;16.69;80.37;100439.09;4973211;28;20093;-67
2021/07/17 02:46:04;;;;;;;33.22;17.27;;;;;;;16.72;79.38;100441.56;4973323;28;20039;-67
2021/07/17 02:48:29;;;;;;;35.78;18.88;;;;;;;16.69;79.42;100440.91;4972853;28;20047;-68
2021/07/17 02:50:54;;;;;;;25.38;16.08;;;;;;;16.69;79.75;100444.41;4973363;28;20042;-67
2021/07/17 02:53:20;;;;;;;32.90;18.30;;;;;;;16.68;79.73;100434.69;4972845;28;20105;-66
2021/07/17 02:55:45;;;;;;;36.00;19.00;;;;;;;16.69;79.92;100443.56;4973127;28;20569;-67
2021/07/17 02:58:10;;;;;;;45.03;19.38;;;;;;;16.67;79.88;100442.81;4972560;28;20652;-67
2021/07/17 03:00:37;;;;;;;54.80;22.27;;;;;;;16.66;80.20;100438.41;4973545;28;20038;-68
2021/07/17 03:03:10;;;;;;;38.92;20.25;;;;;;;16.61;80.11;100438.72;4972950;28;20113;-67
2021/07/17 03:05:35;;;;;;;36.80;17.95;;;;;;;16.63;80.16;100446.59;4973380;28;20038;-68
2021/07/17 03:08:00;;;;;;;31.42;16.55;;;;;;;16.66;80.02;100447.28;4955161;28;20047;-68
2021/07/17 03:10:26;;;;;;;39.17;19.15;;;;;;;16.67;79.88;100445.47;4972634;28;20141;-68
2021/07/17 03:12:51;;;;;;;41.75;19.60;;;;;;;16.65;80.14;100436.72;4972161;28;20402;-67
2021/07/17 03:15:17;;;;;;;37.10;18.75;;;;;;;16.65;79.86;100431.41;4955150;28;20042;-66
2021/07/17 03:17:42;;;;;;;38.97;20.17;;;;;;;16.63;80.52;100433.28;4971983;28;20098;-66
2021/07/17 03:20:08;;;;;;;41.65;19.33;;;;;;;16.62;80.35;100429.78;4954896;28;20042;-68
2021/07/17 03:22:34;;;;;;;37.70;18.13;;;;;;;16.62;80.07;100439.59;4972786;28;20038;-66
2021/07/17 03:24:59;;;;;;;30.25;17.25;;;;;;;16.62;79.98;100427.13;4972504;28;20046;-67
2021/07/17 03:27:24;;;;;;;28.70;17.75;;;;;;;16.60;80.21;100437.00;4971800;28;20491;-67
2021/07/17 03:29:49;;;;;;;37.03;20.70;;;;;;;16.60;79.96;100434.34;4972262;28;20070;-66
2021/07/17 03:32:22;;;;;;;36.40;19.63;;;;;;;16.58;80.58;100435.41;4972038;28;20506;-66
2021/07/17 03:34:47;;;;;;;37.35;17.05;;;;;;;16.55;80.46;100436.44;4974720;28;20217;-65
2021/07/17 03:37:12;;;;;;;37.22;17.77;;;;;;;16.56;80.79;100437.31;4971511;28;20120;-67
2021/07/17 03:39:38;;;;;;;38.75;19.13;;;;;;;16.56;80.44;100430.16;4971664;28;20098;-67
2021/07/17 03:42:03;;;;;;;32.80;17.15;;;;;;;16.58;80.80;100433.59;4972546;28;20130;-67
2021/07/17 03:44:30;;;;;;;34.75;16.77;;;;;;;16.60;80.45;100434.34;4972203;28;20211;-67
2021/07/17 03:46:55;;;;;;;31.48;17.08;;;;;;;16.62;80.76;100435.13;4954710;28;20050;-66
2021/07/17 03:49:21;;;;;;;43.67;23.05;;;;;;;16.58;80.59;100433.59;4971992;28;20132;-65
2021/07/17 03:51:46;;;;;;;38.72;20.63;;;;;;;16.57;81.04;100442.53;4971803;28;20050;-66
2021/07/17 03:54:12;;;;;;;29.30;19.05;;;;;;;16.53;81.12;100441.84;4954321;28;20062;-66
2021/07/17 03:56:37;;;;;;;40.05;22.02;;;;;;;16.52;80.83;100444.63;4954495;28;20066;-66
2021/07/17 03:59:03;;;;;;;41.85;21.60;;;;;;;16.53;80.93;100443.69;4955496;28;20055;-65
2021/07/17 04:01:28;;;;;;;40.22;19.00;;;;;;;16.56;81.49;100442.63;4971300;28;20038;-66
2021/07/17 04:03:53;;;;;;;38.67;19.27;;;;;;;16.59;81.02;100442.41;4971512;28;20031;-67
2021/07/17 04:06:18;;;;;;;50.92;22.70;;;;;;;16.57;81.15;100439.88;4971387;28;20885;-67
2021/07/17 04:08:44;;;;;;;36.70;17.85;;;;;;;16.57;81.09;100447.88;4971577;28;20077;-67
2021/07/17 04:11:09;;;;;;;33.65;17.88;;;;;;;16.57;81.12;100439.88;4971699;28;20044;-66
2021/07/17 04:13:35;;;;;;;33.13;17.55;;;;;;;16.58;81.40;100441.56;4972678;28;20544;-66
2021/07/17 04:16:00;;;;;;;36.88;18.42;;;;;;;16.59;81.45;100448.63;4974632;28;20054;-66
2021/07/17 04:18:26;;;;;;;41.22;21.52;;;;;;;16.62;81.10;100452.91;4971586;28;20062;-66
2021/07/17 04:20:51;;;;;;;37.10;18.13;;;;;;;16.65;81.04;100455.34;4954289;28;20100;-66
2021/07/17 04:23:16;;;;;;;40.80;20.33;;;;;;;16.64;81.08;100454.50;4971432;28;20062;-67
2021/07/17 04:25:42;;;;;;;44.47;21.23;;;;;;;16.63;81.12;100446.59;4971422;28;20035;-66
2021/07/17 04:28:07;;;;;;;38.60;21.50;;;;;;;16.60;81.37;100442.34;4971148;28;20035;-66
2021/07/17 04:30:33;;;;;;;39.22;21.88;;;;;;;16.59;81.50;100437.09;4971920;28;20027;-66
2021/07/17 04:32:59;;;;;;;43.60;24.38;;;;;;;16.57;81.53;100445.19;4971286;28;20031;-66
2021/07/17 04:35:25;;;;;;;32.97;17.00;;;;;;;16.60;81.49;100447.66;4971016;28;20118;-67
2021/07/17 04:37:51;;;;;;;43.10;23.00;;;;;;;16.60;81.42;100455.66;4970495;28;20109;-67
2021/07/17 04:40:16;;;;;;;35.33;21.00;;;;;;;16.62;81.25;100453.75;4970644;28;20122;-66
2021/07/17 04:42:41;;;;;;;40.33;21.48;;;;;;;16.64;81.09;100456.31;4970858;28;20043;-66
2021/07/17 04:45:08;;;;;;;44.25;22.08;;;;;;;16.64;81.61;100457.16;4971445;28;20121;-67
2021/07/17 04:47:34;;;;;;;41.33;21.48;;;;;;;16.63;81.04;100449.28;4970706;28;20090;-67
2021/07/17 04:50:02;;;;;;;49.10;24.10;;;;;;;16.65;81.25;100450.03;4969913;28;20542;-66
2021/07/17 04:52:31;;;;;;;43.35;22.02;;;;;;;16.67;81.55;100440.16;4970681;28;20049;-67
2021/07/17 04:54:56;;;;;;;42.67;24.00;;;;;;;16.68;81.04;100447.16;4970858;28;20372;-67
2021/07/17 04:57:22;;;;;;;48.30;25.63;;;;;;;16.67;81.49;100454.31;4970663;28;20118;-66
2021/07/17 04:59:47;;;;;;;39.47;25.13;;;;;;;16.66;81.35;100455.28;4970701;28;20039;-67
2021/07/17 05:02:13;;;;;;;49.22;28.15;;;;;;;16.67;81.73;100445.47;4970517;28;20034;-67
2021/07/17 05:04:38;;;;;;;42.97;24.85;;;;;;;16.68;81.33;100452.50;4970318;28;20163;-67
2021/07/17 05:07:03;;;;;;;43.13;25.20;;;;;;;16.68;81.18;100457.81;4970849;28;20038;-67
2021/07/17 05:09:29;;;;;;;45.95;28.25;;;;;;;16.66;81.21;100452.59;4970328;28;20043;-67
2021/07/17 05:11:54;;;;;;;40.42;26.58;;;;;;;16.63;81.55;100450.13;4970616;28;20030;-67
2021/07/17 05:14:19;;;;;;;57.15;34.20;;;;;;;16.64;81.82;100448.34;4970295;28;20035;-67
2021/07/17 05:16:45;;;;;;;56.05;30.80;;;;;;;16.63;81.80;100457.25;4970162;28;20041;-67
2021/07/17 05:19:10;;;;;;;52.53;33.05;;;;;;;16.60;81.80;100446.81;4970223;28;20039;-67
2021/07/17 05:21:36;;;;;;;49.72;32.53;;;;;;;16.61;81.94;100457.34;4970879;28;20487;-67
2021/07/17 05:24:02;;;;;;;46.45;29.67;;;;;;;16.60;81.78;100455.66;4970441;28;20117;-69
2021/07/17 05:26:27;;;;;;;48.70;29.75;;;;;;;16.66;81.91;100449.06;4970079;28;20070;-68
2021/07/17 05:28:53;;;;;;;58.75;32.53;;;;;;;16.65;82.09;100456.22;4970451;28;20156;-68
2021/07/17 05:31:19;;;;;;;49.45;30.33;;;;;;;16.70;81.85;100470.06;4970226;28;20057;-69
2021/07/17 05:33:44;;;;;;;50.42;31.40;;;;;;;16.77;81.24;100456.38;4970239;28;20041;-68
2021/07/17 05:36:10;;;;;;;47.60;28.88;;;;;;;16.81;81.47;100460.56;4985002;28;20033;-68
2021/07/17 05:38:36;;;;;;;44.80;31.02;;;;;;;16.85;81.08;100454.09;4990174;28;20130;-68
2021/07/17 05:41:01;;;;;;;58.08;34.50;;;;;;;16.90;81.01;100460.00;4989785;28;20121;-68
2021/07/17 05:43:27;;;;;;;46.60;32.55;;;;;;;16.90;80.65;100465.31;4989691;28;20042;-68
2021/07/17 05:45:54;;;;;;;64.65;32.83;;;;;;;16.87;80.39;100455.72;4972621;28;20027;-68
2021/07/17 05:48:20;;;;;;;46.50;27.50;;;;;;;16.91;80.81;100456.38;4989371;28;20066;-68
2021/07/17 05:50:47;;;;;;;54.03;30.40;;;;;;;16.92;80.79;100474.06;4989547;28;20132;-68
2021/07/17 05:53:13;;;;;;;64.40;31.73;;;;;;;16.89;80.54;100472.47;4989565;28;20038;-68
2021/07/17 05:55:39;;;;;;;40.33;26.90;;;;;;;16.90;80.38;100463.50;4989854;28;20042;-68
2021/07/17 05:58:04;;;;;;;49.17;25.40;;;;;;;16.93;80.75;100470.44;4989880;28;20037;-67
2021/07/17 06:00:29;;;;;;;48.95;28.17;;;;;;;16.95;80.42;100473.84;4990110;28;20030;-69
2021/07/17 06:02:54;;;;;;;44.97;28.58;;;;;;;16.98;79.89;100473.66;4993521;28;20509;-69
2021/07/17 06:05:20;;;;;;;60.20;29.48;;;;;;;17.01;80.33;100485.94;4993375;28;20418;-69
2021/07/17 06:07:45;;;;;;;50.00;31.50;;;;;;;16.98;80.22;100484.31;4993072;28;20495;-68
2021/07/17 06:10:11;;;;;;;48.80;28.88;;;;;;;16.98;79.94;100478.97;4993899;28;20608;-68
2021/07/17 06:12:36;;;;;;;54.00;30.90;;;;;;;17.04;79.75;100485.75;4991542;28;20041;-68
2021/07/17 06:15:03;;;;;;;43.72;25.85;;;;;;;17.09;79.80;100484.47;4992603;28;20041;-68
2021/07/17 06:17:28;;;;;;;46.85;29.95;;;;;;;17.14;79.60;100477.03;4993161;28;20404;-68
2021/07/17 06:19:54;;;;;;;36.30;22.45;;;;;;;17.25;79.54;100478.97;4995868;28;20030;-68
2021/07/17 06:22:19;;;;;;;48.83;30.05;;;;;;;17.29;78.97;100475.16;4993748;28;20089;-69
2021/07/17 06:24:44;;;;;;;37.90;25.38;;;;;;;17.40;78.97;100474.47;4993985;28;20057;-68
2021/07/17 06:27:10;;;;;;;37.13;23.25;;;;;;;17.53;78.23;100485.16;4993166;28;20045;-67
2021/07/17 06:29:36;;;;;;;51.05;29.08;;;;;;;17.52;77.84;100475.44;4994054;28;20038;-67
2021/07/17 06:32:04;;;;;;;65.72;41.33;;;;;;;17.60;78.30;100481.13;4993458;28;20073;-67
2021/07/17 06:34:30;;;;;;;42.72;27.27;;;;;;;17.66;77.48;100480.69;4992891;28;20026;-67
2021/07/17 06:36:56;;;;;;;42.30;25.55;;;;;;;17.68;77.30;100478.78;4993859;28;20702;-67
2021/07/17 06:39:21;;;;;;;36.17;24.33;;;;;;;17.72;76.54;100490.97;4993155;28;20051;-67
2021/07/17 06:41:46;;;;;;;29.55;21.50;;;;;;;17.82;77.00;100485.91;4992826;28;20449;-67
2021/07/17 06:44:12;;;;;;;31.08;22.58;;;;;;;17.85;76.28;100490.16;4992723;28;20034;-69
2021/07/17 06:46:37;;;;;;;40.78;25.25;;;;;;;17.88;76.12;100484.63;4992657;28;20402;-68
2021/07/17 06:49:03;;;;;;;34.95;23.67;;;;;;;17.90;76.11;100485.38;4992504;28;20153;-68
2021/07/17 06:51:28;;;;;;;47.40;27.00;;;;;;;17.85;75.92;100488.34;4992469;28;20113;-68
2021/07/17 06:53:54;;;;;;;36.72;21.65;;;;;;;17.90;76.55;100498.72;4992379;28;20101;-67
2021/07/17 06:56:21;;;;;;;40.70;27.05;;;;;;;18.04;75.81;100501.28;4991717;28;20100;-68
2021/07/17 06:58:46;;;;;;;43.35;30.67;;;;;;;18.18;75.40;100500.31;4991957;28;20023;-68
2021/07/17 07:01:12;;;;;;;52.25;34.78;;;;;;;18.24;75.01;100503.41;4992109;28;20042;-69
2021/07/17 07:03:37;;;;;;;43.75;34.40;;;;;;;18.29;74.22;100504.94;4991765;28;20034;-69
2021/07/17 07:06:02;;;;;;;49.97;34.03;;;;;;;18.33;73.66;100504.56;4992024;28;20037;-68
2021/07/17 07:08:28;;;;;;;47.17;32.13;;;;;;;18.32;73.61;100510.03;4974122;28;20038;-67
2021/07/17 07:10:53;;;;;;;47.88;34.40;;;;;;;18.21;73.11;100503.66;4991831;28;20064;-68
2021/07/17 07:13:18;;;;;;;44.75;29.73;;;;;;;18.18;74.16;100505.66;4990824;28;20043;-67
2021/07/17 07:15:45;;;;;;;41.63;28.02;;;;;;;18.20;74.29;100504.59;4991460;28;20038;-68
2021/07/17 07:18:12;;;;;;;50.28;32.22;;;;;;;18.33;73.05;100501.91;4991631;28;20030;-68
2021/07/17 07:20:38;;;;;;;39.15;26.00;;;;;;;18.57;72.50;100504.66;4992234;28;20066;-68
2021/07/17 07:23:04;;;;;;;36.35;26.17;;;;;;;18.66;71.79;100512.03;4991692;28;20532;-68
2021/07/17 07:25:29;;;;;;;38.63;25.70;;;;;;;18.63;71.55;100509.59;4991596;28;20130;-68
2021/07/17 07:27:55;;;;;;;41.40;25.30;;;;;;;18.61;71.75;100502.66;4990873;28;20106;-67
2021/07/17 07:30:20;;;;;;;29.23;20.13;;;;;;;18.70;71.69;100511.81;4971023;28;20142;-68
2021/07/17 07:32:50;;;;;;;41.95;20.40;;;;;;;18.74;70.49;100516.81;4980689;28;20030;-69
2021/07/17 07:35:20;;;;;;;28.60;19.42;;;;;;;18.70;70.21;100523.34;4991533;28;20121;-68
2021/07/17 07:37:46;;;;;;;38.67;20.10;;;;;;;18.62;70.20;100521.22;4991182;28;20508;-69
2021/07/17 07:40:14;;;;;;;36.55;21.23;;;;;;;18.45;70.87;100521.56;4991300;28;20498;-68
2021/07/17 07:42:39;;;;;;;24.90;17.15;;;;;;;18.42;71.42;100519.09;4991437;28;20042;-67
2021/07/17 07:45:05;;;;;;;31.88;17.95;;;;;;;18.52;70.99;100528.16;4991588;28;20497;-67
2021/07/17 07:47:30;;;;;;;28.55;19.88;;;;;;;18.62;71.09;100526.56;4991453;28;20092;-68
2021/07/17 07:49:57;;;;;;;30.05;18.20;;;;;;;18.63;70.13;100525.63;4991650;28;20050;-67
2021/07/17 07:52:23;;;;;;;30.27;20.00;;;;;;;18.66;69.46;100521.88;4991301;28;20041;-69
2021/07/17 07:54:49;;;;;;;23.25;15.73;;;;;;;18.72;70.31;100525.91;4991238;28;20045;-67
2021/07/17 07:57:14;;;;;;;29.05;19.63;;;;;;;18.80;69.44;100529.78;4990696;28;20410;-68
2021/07/17 07:59:39;;;;;;;22.20;16.25;;;;;;;18.81;69.42;100525.28;4973561;28;20570;-68
2021/07/17 08:02:05;;;;;;;35.10;19.10;;;;;;;18.78;69.92;100514.81;4991881;28;20131;-68
2021/07/17 08:04:30;;;;;;;33.60;21.08;;;;;;;18.75;69.66;100515.84;4957106;28;20034;-67
2021/07/17 08:06:56;;;;;;;36.60;25.52;;;;;;;18.63;69.99;100517.59;4990550;28;20042;-67
2021/07/17 08:09:21;;;;;;;34.22;23.73;;;;;;;18.50;70.98;100515.91;4990985;28;20042;-68
2021/07/17 08:11:47;;;;;;;30.85;21.42;;;;;;;18.58;70.91;100509.06;4991462;28;20045;-67
2021/07/17 08:14:13;;;;;;;35.22;21.55;;;;;;;18.60;71.18;100515.13;4973380;28;20042;-67
2021/07/17 08:16:38;;;;;;;28.95;19.08;;;;;;;18.60;70.72;100523.13;4991023;28;20037;-67
2021/07/17 08:19:04;;;;;;;37.38;21.50;;;;;;;18.65;70.56;100523.66;4991648;28;20034;-67
2021/07/17 08:21:29;;;;;;;36.40;21.15;;;;;;;18.62;70.59;100531.06;4981293;28;20035;-68
2021/07/17 08:23:54;;;;;;;33.67;20.52;;;;;;;18.54;70.69;100528.94;4972695;28;20407;-69
2021/07/17 08:26:20;;;;;;;34.88;20.58;;;;;;;18.50;71.06;100526.56;4957309;28;20501;-67
2021/07/17 08:28:45;;;;;;;27.23;17.30;;;;;;;18.54;70.56;100536.94;4976971;28;20049;-68
2021/07/17 08:31:10;;;;;;;25.05;17.52;;;;;;;18.56;70.75;100537.69;4974839;28;20041;-69
2021/07/17 08:33:36;;;;;;;28.33;18.08;;;;;;;18.57;69.97;100541.22;4972578;28;20031;-68
2021/07/17 08:36:02;;;;;;;31.58;17.45;;;;;;;18.59;70.48;100537.47;4972487;28;20038;-68
2021/07/17 08:38:27;;;;;;;21.08;15.80;;;;;;;18.66;70.48;100546.75;4954127;28;20113;-68
2021/07/17 08:40:54;;;;;;;27.77;18.13;;;;;;;18.70;69.73;100544.69;4971530;28;20086;-67
2021/07/17 08:43:20;;;;;;;29.15;17.27;;;;;;;18.76;69.61;100548.81;4971272;28;20042;-68
2021/07/17 08:45:47;;;;;;;34.10;18.17;;;;;;;18.78;69.59;100558.41;4970866;28;20035;-68
2021/07/17 08:48:14;;;;;;;21.67;15.20;;;;;;;18.81;69.14;100558.19;4971054;28;20581;-68
2021/07/17 08:50:40;;;;;;;30.58;17.08;;;;;;;18.81;68.42;100552.00;4971557;28;20035;-67
2021/07/17 08:53:06;;;;;;;23.52;17.45;;;;;;;18.81;69.15;100554.69;4967956;28;20039;-67
2021/07/17 08:55:32;;;;;;;22.08;16.40;;;;;;;18.79;68.97;100554.78;4971068;28;20390;-67
2021/07/17 08:57:58;;;;;;;29.60;18.10;;;;;;;18.81;69.68;100558.19;4970178;28;20506;-67
2021/07/17 09:00:34;;;;;;;27.83;16.52;;;;;;;18.81;69.12;100555.53;4970502;28;20039;-69
2021/07/17 09:03:03;;;;;;;20.60;14.60;;;;;;;18.86;69.46;100549.84;4970166;28;20043;-67
2021/07/17 09:05:32;;;;;;;27.58;13.48;;;;;;;18.99;68.49;100550.66;4970436;28;20050;-67
2021/07/17 09:07:58;;;;;;;28.77;16.25;;;;;;;19.11;67.96;100550.75;4970093;28;20043;-66
2021/07/17 09:10:37;;;;;;;20.52;11.90;;;;;;;19.77;66.45;100545.91;4970686;28;20097;-67
2021/07/17 09:13:06;;;;;;;18.35;11.73;;;;;;;20.44;64.09;100543.38;4970788;28;20178;-67
2021/07/17 09:15:32;;;;;;;21.88;10.65;;;;;;;20.30;63.20;100544.44;4970399;28;20035;-68
2021/07/17 09:17:57;;;;;;;18.48;10.75;;;;;;;20.08;64.10;100545.28;4970585;28;20081;-67
2021/07/17 09:20:23;;;;;;;19.50;13.65;;;;;;;19.78;64.68;100543.09;4970944;28;20225;-67
2021/07/17 09:22:59;;;;;;;21.05;14.30;;;;;;;19.68;65.60;100548.28;4970982;28;20042;-66
2021/07/17 09:25:34;;;;;;;19.85;14.27;;;;;;;19.55;65.65;100550.16;4970350;28;20050;-68
2021/07/17 09:28:21;;;;;;;35.63;16.42;;;;;;;19.45;65.79;100549.13;4970919;28;20120;-67
2021/07/17 09:30:48;;;;;;;31.52;13.82;;;;;;;19.50;66.33;100542.47;4952969;28;20049;-68
2021/07/17 09:33:15;;;;;;;17.40;11.70;;;;;;;19.84;65.63;100542.66;4972788;28;20035;-68
2021/07/17 09:35:44;;;;;;;21.27;13.32;;;;;;;20.13;63.90;100539.53;4953209;28;20117;-67
2021/07/17 09:38:10;;;;;;;22.75;12.25;;;;;;;20.45;63.70;100544.22;4974621;28;20398;-67
2021/07/17 09:40:49;;;;;;;22.58;13.10;;;;;;;20.50;63.39;100544.72;4957190;28;20031;-68
2021/07/17 09:43:39;;;;;;;22.52;13.00;;;;;;;20.44;63.24;100543.38;4973650;28;20129;-69
2021/07/17 09:46:26;;;;;;;22.65;12.35;;;;;;;20.50;63.60;100545.59;4974234;28;20037;-66
2021/07/17 09:48:54;;;;;;;23.60;14.23;;;;;;;20.52;62.72;100543.63;4974038;28;20410;-68
2021/07/17 09:51:23;;;;;;;22.75;13.82;;;;;;;20.58;63.02;100543.19;4956731;28;20114;-69
2021/07/17 09:53:51;;;;;;;22.73;12.70;;;;;;;21.81;60.34;100532.34;4973931;28;20113;-67
2021/07/17 09:56:25;;;;;;;26.05;14.15;;;;;;;22.17;58.06;100532.84;4973198;28;20085;-67
2021/07/17 09:58:52;;;;;;;22.58;11.60;;;;;;;22.16;57.83;100533.84;4973917;28;20035;-67
2021/07/17 10:01:26;;;;;;;22.15;12.90;;;;;;;21.68;58.95;100542.38;4972542;28;20129;-68
2021/07/17 10:04:04;;;;;;;25.20;12.30;;;;;;;22.14;57.30;100535.81;4973826;28;20031;-68
2021/07/17 10:06:31;;;;;;;24.17;14.75;;;;;;;21.81;58.58;100527.81;4973380;28;20034;-68
2021/07/17 10:08:58;;;;;;;19.15;12.77;;;;;;;21.64;59.03;100528.38;4973402;28;20034;-67
2021/07/17 10:11:25;;;;;;;18.23;11.98;;;;;;;21.69;59.16;100533.38;4972430;28;20038;-67
2021/07/17 10:13:52;;;;;;;18.13;11.40;;;;;;;21.92;59.08;100532.25;4973254;28;20541;-68
2021/07/17 10:16:24;;;;;;;23.80;12.77;;;;;;;22.68;56.47;100537.38;4973471;28;20495;-67
2021/07/17 10:18:52;;;;;;;22.25;13.93;;;;;;;23.03;56.10;100534.28;4979701;28;20048;-67
2021/07/17 10:21:18;;;;;;;26.48;14.90;;;;;;;23.05;56.16;100535.00;4993122;28;20065;-69
2021/07/17 10:23:44;;;;;;;20.17;14.88;;;;;;;23.55;54.66;100536.75;4993244;28;20032;-69
2021/07/17 10:26:10;;;;;;;20.52;14.43;;;;;;;24.63;51.71;100530.25;4993501;28;20038;-68
2021/07/17 10:28:36;;;;;;;17.50;10.38;;;;;;;25.52;49.67;100526.91;4992572;28;20030;-66
2021/07/17 10:31:02;;;;;;;15.50;9.27;;;;;;;26.21;46.48;100525.31;4992641;28;20061;-67
2021/07/17 10:33:30;;;;;;;19.90;10.82;;;;;;;26.35;45.51;100531.97;4992839;28;20089;-68
2021/07/17 10:35:58;;;;;;;16.80;9.85;;;;;;;26.38;46.10;100530.81;4992789;28;20420;-68
2021/07/17 10:38:24;;;;;;;17.08;8.90;;;;;;;26.18;46.26;100522.06;4992647;28;20031;-67
2021/07/17 10:40:53;;;;;;;17.15;10.25;;;;;;;26.74;45.61;100520.72;4992099;28;20512;-68
2021/07/17 10:43:29;;;;;;;13.25;8.43;;;;;;;27.37;43.87;100516.72;4992515;28;20404;-67
2021/07/17 10:45:54;;;;;;;23.85;9.90;;;;;;;27.59;42.21;100513.38;4992542;28;20077;-68
2021/07/17 10:48:28;;;;;;;17.45;8.40;;;;;;;27.69;42.49;100512.31;4990783;28;20510;-68
2021/07/17 10:51:00;;;;;;;19.23;8.43;;;;;;;27.95;42.69;100501.34;4993071;28;20034;-69
2021/07/17 10:53:45;;;;;;;18.70;9.45;;;;;;;27.79;42.01;100504.91;4975473;28;20034;-68
2021/07/17 10:56:29;;;;;;;17.35;9.18;;;;;;;27.68;42.43;100502.53;4992232;28;20034;-68
2021/07/17 10:58:54;;;;;;;16.73;9.00;;;;;;;26.71;45.56;100505.66;4992040;28;20503;-67
2021/07/17 11:01:20;;;;;;;13.50;7.35;;;;;;;27.01;45.49;100499.84;4992405;28;20114;-67
2021/07/17 11:03:46;;;;;;;15.50;8.40;;;;;;;27.36;43.91;100499.63;4992095;28;20038;-68
2021/07/17 11:06:28;;;;;;;14.45;7.70;;;;;;;27.37;42.81;100505.91;4991940;28;20026;-70